Townsend, Washington
Current Conditions -  °F | °C
As of 8:56 AM on Friday 24 Oct 2014 (Local Time) from KNUW Reporting Station
Broken Clouds Broken Clouds  
Wind Chill: 51°   Ceiling: 13000
Heat Index: 51°   Visibility: 10mi
Dew Point: 44°   Wind: 7mph
Humidity: 77%   Direction: 110°ESE
Pressure: 30.05"   Gusts: NA
Location:  48.026°N, 122.859°W
Report Text: KNUW 241556Z 11006KT 10SM FEW013 SCT027 SCT037 BKN130 BKN250 11/07 A3005 RMK AO2 SLP180 T01060067 $
Loading
Personal Weather Stations






























Interactive Weather Map
Tropical Storm Tracking
New forecast layout! Learn more

10-Day Weather Forecast

Advertisements
Track Severe Weather on mobile